sensor_id;sensor_type;location;lat;lon;timestamp;pressure;altitude;pressure_sealevel;temperature;humidity
36354;BME280;22383;51.114;13.666;2023-10-08T00:01:10;69089.22;;;17.18;100.00
36354;BME280;22383;51.114;13.666;2023-10-08T00:03:42;69085.41;;;17.17;100.00
36354;BME280;22383;51.114;13.666;2023-10-08T00:06:20;69055.66;;;17.12;100.00
36354;BME280;22383;51.114;13.666;2023-10-08T00:08:49;69079.72;;;17.12;100.00
36354;BME280;22383;51.114;13.666;2023-10-08T00:11:19;69081.97;;;17.14;100.00
36354;BME280;22383;51.114;13.666;2023-10-08T00:13:50;69077.44;;;17.10;100.00
36354;BME280;22383;51.114;13.666;2023-10-08T00:16:17;69067.19;;;17.00;100.00
36354;BME280;22383;51.114;13.666;2023-10-08T00:18:45;69057.50;;;16.92;100.00
36354;BME280;22383;51.114;13.666;2023-10-08T00:21:21;69048.94;;;16.84;100.00
36354;BME280;22383;51.114;13.666;2023-10-08T00:23:55;69039.44;;;16.78;100.00
36354;BME280;22383;51.114;13.666;2023-10-08T00:26:27;69038.13;;;16.74;100.00
36354;BME280;22383;51.114;13.666;2023-10-08T00:29:02;69028.25;;;16.63;100.00
36354;BME280;22383;51.114;13.666;2023-10-08T00:31:34;69019.47;;;16.60;100.00
36354;BME280;22383;51.114;13.666;2023-10-08T00:34:08;69015.31;;;16.54;100.00
36354;BME280;22383;51.114;13.666;2023-10-08T00:36:44;69006.03;;;16.43;100.00
36354;BME280;22383;51.114;13.666;2023-10-08T00:39:13;68990.28;;;16.31;100.00
36354;BME280;22383;51.114;13.666;2023-10-08T00:41:44;68973.03;;;16.13;100.00
36354;BME280;22383;51.114;13.666;2023-10-08T00:44:13;68966.38;;;16.10;100.00
36354;BME280;22383;51.114;13.666;2023-10-08T00:46:57;68949.84;;;15.95;100.00
36354;BME280;22383;51.114;13.666;2023-10-08T00:49:29;68939.59;;;15.85;100.00
36354;BME280;22383;51.114;13.666;2023-10-08T00:52:08;68928.78;;;15.76;100.00
36354;BME280;22383;51.114;13.666;2023-10-08T00:54:36;68920.03;;;15.65;100.00
36354;BME280;22383;51.114;13.666;2023-10-08T00:57:26;68925.56;;;15.68;100.00
36354;BME280;22383;51.114;13.666;2023-10-08T00:59:53;68925.72;;;15.70;100.00
36354;BME280;22383;51.114;13.666;2023-10-08T01:02:25;68920.03;;;15.65;100.00
36354;BME280;22383;51.114;13.666;2023-10-08T01:04:56;68915.09;;;15.63;100.00
36354;BME280;22383;51.114;13.666;2023-10-08T01:07:24;68908.84;;;15.58;100.00
36354;BME280;22383;51.114;13.666;2023-10-08T01:09:52;68906.19;;;15.58;100.00
36354;BME280;22383;51.114;13.666;2023-10-08T01:12:25;68896.16;;;15.44;100.00
36354;BME280;22383;51.114;13.666;2023-10-08T01:15:01;68888.75;;;15.37;100.00
36354;BME280;22383;51.114;13.666;2023-10-08T01:17:43;68874.94;;;15.22;100.00
36354;BME280;22383;51.114;13.666;2023-10-08T01:20:40;68847.97;;;15.03;100.00
36354;BME280;22383;51.114;13.666;2023-10-08T01:23:20;68836.03;;;14.92;100.00
36354;BME280;22383;51.114;13.666;2023-10-08T01:25:49;68826.75;;;14.81;100.00
36354;BME280;22383;51.114;13.666;2023-10-08T01:28:23;68814.41;;;14.72;100.00
36354;BME280;22383;51.114;13.666;2023-10-08T01:30:56;68821.44;;;14.74;100.00
36354;BME280;22383;51.114;13.666;2023-10-08T01:33:27;68811.41;;;14.67;100.00
36354;BME280;22383;51.114;13.666;2023-10-08T01:36:04;68800.19;;;14.60;100.00
36354;BME280;22383;51.114;13.666;2023-10-08T01:38:32;68774.03;;;14.36;100.00
36354;BME280;22383;51.114;13.666;2023-10-08T01:41:02;68754.91;;;14.14;100.00
36354;BME280;22383;51.114;13.666;2023-10-08T01:43:37;68726.28;;;13.93;100.00
36354;BME280;22383;51.114;13.666;2023-10-08T01:46:05;68706.78;;;13.73;100.00
36354;BME280;22383;51.114;13.666;2023-10-08T01:48:39;68668.88;;;13.41;100.00
36354;BME280;22383;51.114;13.666;2023-10-08T01:51:06;68638.19;;;13.13;100.00
36354;BME280;22383;51.114;13.666;2023-10-08T01:53:36;68607.69;;;12.81;100.00
36354;BME280;22383;51.114;13.666;2023-10-08T01:56:04;68570.03;;;12.52;100.00
36354;BME280;22383;51.114;13.666;2023-10-08T01:58:32;68560.00;;;12.45;100.00
36354;BME280;22383;51.114;13.666;2023-10-08T02:01:02;68554.72;;;12.38;100.00
36354;BME280;22383;51.114;13.666;2023-10-08T02:03:32;68547.88;;;12.32;100.00
36354;BME280;22383;51.114;13.666;2023-10-08T02:06:01;68524.56;;;12.32;100.00
36354;BME280;22383;51.114;13.666;2023-10-08T02:08:32;68542.41;;;12.22;100.00
36354;BME280;22383;51.114;13.666;2023-10-08T02:11:00;68524.63;;;12.10;100.00
36354;BME280;22383;51.114;13.666;2023-10-08T02:13:29;68513.66;;;11.98;100.00
36354;BME280;22383;51.114;13.666;2023-10-08T02:15:57;68512.50;;;11.97;100.00
36354;BME280;22383;51.114;13.666;2023-10-08T02:18:25;68501.88;;;11.90;100.00
36354;BME280;22383;51.114;13.666;2023-10-08T02:20:52;68498.31;;;11.84;100.00
36354;BME280;22383;51.114;13.666;2023-10-08T02:23:20;68488.84;;;11.78;100.00
36354;BME280;22383;51.114;13.666;2023-10-08T02:25:47;68493.19;;;11.80;100.00
36354;BME280;22383;51.114;13.666;2023-10-08T02:28:15;68489.22;;;11.76;100.00
36354;BME280;22383;51.114;13.666;2023-10-08T02:30:44;68482.97;;;11.70;100.00
36354;BME280;22383;51.114;13.666;2023-10-08T02:33:11;68463.69;;;11.53;100.00
36354;BME280;22383;51.114;13.666;2023-10-08T02:35:42;68447.25;;;11.38;100.00
36354;BME280;22383;51.114;13.666;2023-10-08T02:38:16;68432.47;;;11.25;100.00
36354;BME280;22383;51.114;13.666;2023-10-08T02:40:44;68414.34;;;11.08;100.00
36354;BME280;22383;51.114;13.666;2023-10-08T02:43:16;68414.34;;;11.08;100.00
36354;BME280;22383;51.114;13.666;2023-10-08T02:45:45;68409.78;;;11.04;100.00
36354;BME280;22383;51.114;13.666;2023-10-08T02:48:16;68395.81;;;10.94;100.00
36354;BME280;22383;51.114;13.666;2023-10-08T02:50:45;68403.38;;;10.96;100.00
36354;BME280;22383;51.114;13.666;2023-10-08T02:53:13;68399.03;;;10.94;100.00
36354;BME280;22383;51.114;13.666;2023-10-08T02:55:46;68397.50;;;10.95;100.00
36354;BME280;22383;51.114;13.666;2023-10-08T02:58:14;68405.66;;;10.98;100.00
36354;BME280;22383;51.114;13.666;2023-10-08T03:00:44;68403.00;;;10.98;100.00
36354;BME280;22383;51.114;13.666;2023-10-08T03:03:16;68394.13;;;10.92;100.00
36354;BME280;22383;51.114;13.666;2023-10-08T03:05:51;68403.00;;;10.98;100.00
36354;BME280;22383;51.114;13.666;2023-10-08T03:08:19;68401.47;;;10.99;100.00
36354;BME280;22383;51.114;13.666;2023-10-08T03:10:50;68403.00;;;10.98;100.00
36354;BME280;22383;51.114;13.666;2023-10-08T03:13:23;68400.72;;;10.96;100.00
36354;BME280;22383;51.114;13.666;2023-10-08T03:15:50;68393.53;;;10.92;100.00
36354;BME280;22383;51.114;13.666;2023-10-08T03:18:30;68383.50;;;10.78;100.00
36354;BME280;22383;51.114;13.666;2023-10-08T03:21:06;68365.75;;;10.67;100.00
36354;BME280;22383;51.114;13.666;2023-10-08T03:23:51;68332.88;;;10.37;100.00
36354;BME280;22383;51.114;13.666;2023-10-08T03:26:19;68326.03;;;10.23;100.00
36354;BME280;22383;51.114;13.666;2023-10-08T03:29:02;68312.25;;;10.16;100.00
36354;BME280;22383;51.114;13.666;2023-10-08T03:31:35;68296.19;;;10.06;100.00
36354;BME280;22383;51.114;13.666;2023-10-08T03:34:31;68298.66;;;10.03;100.00
36354;BME280;22383;51.114;13.666;2023-10-08T03:37:01;68279.56;;;9.89;100.00
36354;BME280;22383;51.114;13.666;2023-10-08T03:39:34;68277.50;;;9.82;100.00
36354;BME280;22383;51.114;13.666;2023-10-08T03:42:27;68274.09;;;9.79;100.00
36354;BME280;22383;51.114;13.666;2023-10-08T03:45:01;68277.31;;;9.87;100.00
36354;BME280;22383;51.114;13.666;2023-10-08T03:47:38;68273.72;;;9.81;100.00
36354;BME280;22383;51.114;13.666;2023-10-08T03:50:06;68266.56;;;9.77;100.00
36354;BME280;22383;51.114;13.666;2023-10-08T03:52:37;68271.66;;;9.81;100.00
36354;BME280;22383;51.114;13.666;2023-10-08T03:55:05;68265.63;;;9.71;100.00
36354;BME280;22383;51.114;13.666;2023-10-08T03:57:53;68254.66;;;9.66;100.00
36354;BME280;22383;51.114;13.666;2023-10-08T04:00:24;68250.13;;;9.55;100.00
36354;BME280;22383;51.114;13.666;2023-10-08T04:02:59;68240.31;;;9.51;100.00
36354;BME280;22383;51.114;13.666;2023-10-08T04:05:36;68239.94;;;9.53;100.00
36354;BME280;22383;51.114;13.666;2023-10-08T04:08:26;68240.88;;;9.51;100.00
36354;BME280;22383;51.114;13.666;2023-10-08T04:11:22;68217.84;;;9.33;100.00
36354;BME280;22383;51.114;13.666;2023-10-08T04:13:57;68216.50;;;9.29;100.00
36354;BME280;22383;51.114;13.666;2023-10-08T04:16:29;68212.53;;;9.25;100.00
36354;BME280;22383;51.114;13.666;2023-10-08T04:18:57;68219.16;;;9.29;100.00
36354;BME280;22383;51.114;13.666;2023-10-08T04:21:24;68210.28;;;9.23;100.00
36354;BME280;22383;51.114;13.666;2023-10-08T04:23:55;68209.72;;;9.23;100.00
36354;BME280;22383;51.114;13.666;2023-10-08T04:26:24;68216.88;;;9.27;100.00
36354;BME280;22383;51.114;13.666;2023-10-08T04:28:56;68206.91;;;9.20;100.00
36354;BME280;22383;51.114;13.666;2023-10-08T04:31:29;68199.16;;;9.16;100.00
36354;BME280;22383;51.114;13.666;2023-10-08T04:34:06;68199.53;;;9.14;100.00
36354;BME280;22383;51.114;13.666;2023-10-08T04:36:45;68188.00;;;9.08;100.00
36354;BME280;22383;51.114;13.666;2023-10-08T04:39:16;68196.31;;;9.06;100.00
36354;BME280;22383;51.114;13.666;2023-10-08T04:41:48;68188.38;;;9.06;100.00
36354;BME280;22383;51.114;13.666;2023-10-08T04:44:21;68203.28;;;9.15;100.00
36354;BME280;22383;51.114;13.666;2023-10-08T04:46:48;68195.75;;;9.13;100.00
36354;BME280;22383;51.114;13.666;2023-10-08T04:49:19;68200.66;;;9.15;100.00
36354;BME280;22383;51.114;13.666;2023-10-08T04:52:01;68201.41;;;9.18;100.00
36354;BME280;22383;51.114;13.666;2023-10-08T04:54:32;68185.75;;;9.06;100.00
36354;BME280;22383;51.114;13.666;2023-10-08T04:57:00;68197.44;;;9.14;100.00
36354;BME280;22383;51.114;13.666;2023-10-08T04:59:30;68196.13;;;9.11;100.00
36354;BME280;22383;51.114;13.666;2023-10-08T05:02:03;68190.47;;;9.05;100.00
36354;BME280;22383;51.114;13.666;2023-10-08T05:04:50;68186.31;;;8.99;100.00
36354;BME280;22383;51.114;13.666;2023-10-08T05:07:34;68190.84;;;9.03;100.00
36354;BME280;22383;51.114;13.666;2023-10-08T05:10:24;68165.19;;;8.85;100.00
36354;BME280;22383;51.114;13.666;2023-10-08T05:12:53;68168.41;;;8.85;100.00
36354;BME280;22383;51.114;13.666;2023-10-08T05:15:33;68175.38;;;8.94;100.00
36354;BME280;22383;51.114;13.666;2023-10-08T05:18:03;68170.28;;;8.89;100.00
36354;BME280;22383;51.114;13.666;2023-10-08T05:20:57;68184.25;;;9.00;100.00
36354;BME280;22383;51.114;13.666;2023-10-08T05:23:29;68188.97;;;9.06;100.00
36354;BME280;22383;51.114;13.666;2023-10-08T05:25:57;68182.91;;;8.96;100.00
36354;BME280;22383;51.114;13.666;2023-10-08T05:28:44;68172.91;;;8.89;100.00
36354;BME280;22383;51.114;13.666;2023-10-08T05:31:28;68174.63;;;8.91;100.00
36354;BME280;22383;51.114;13.666;2023-10-08T05:34:20;68181.41;;;8.97;100.00
36354;BME280;22383;51.114;13.666;2023-10-08T05:37:09;68171.22;;;8.88;100.00
36354;BME280;22383;51.114;13.666;2023-10-08T05:39:59;68176.50;;;8.95;100.00
36354;BME280;22383;51.114;13.666;2023-10-08T05:42:39;68167.81;;;8.85;100.00
36354;BME280;22383;51.114;13.666;2023-10-08T05:45:13;68174.06;;;8.91;100.00
36354;BME280;22383;51.114;13.666;2023-10-08T05:47:41;68168.00;;;8.87;100.00
36354;BME280;22383;51.114;13.666;2023-10-08T05:50:29;68180.84;;;8.97;100.00
36354;BME280;22383;51.114;13.666;2023-10-08T05:53:06;68177.63;;;8.96;100.00
36354;BME280;22383;51.114;13.666;2023-10-08T05:55:46;68173.31;;;8.95;100.00
36354;BME280;22383;51.114;13.666;2023-10-08T05:58:28;68169.88;;;8.84;100.00
36354;BME280;22383;51.114;13.666;2023-10-08T06:01:12;68168.94;;;8.86;100.00
36354;BME280;22383;51.114;13.666;2023-10-08T06:03:56;68157.06;;;8.75;100.00
36354;BME280;22383;51.114;13.666;2023-10-08T06:06:43;68149.16;;;8.68;100.00
36354;BME280;22383;51.114;13.666;2023-10-08T06:09:24;68108.56;;;8.33;100.00
36354;BME280;22383;51.114;13.666;2023-10-08T06:12:02;68095.91;;;8.20;100.00
36354;BME280;22383;51.114;13.666;2023-10-08T06:14:38;68092.88;;;8.14;100.00
36354;BME280;22383;51.114;13.666;2023-10-08T06:17:35;68085.72;;;8.10;100.00
36354;BME280;22383;51.114;13.666;2023-10-08T06:20:25;68074.59;;;8.03;100.00
36354;BME280;22383;51.114;13.666;2023-10-08T06:22:54;68072.91;;;8.01;100.00
36354;BME280;22383;51.114;13.666;2023-10-08T06:25:26;68077.44;;;8.05;100.00
36354;BME280;22383;51.114;13.666;2023-10-08T06:27:55;68079.69;;;8.07;100.00
36354;BME280;22383;51.114;13.666;2023-10-08T06:30:23;68085.72;;;8.10;100.00
36354;BME280;22383;51.114;13.666;2023-10-08T06:32:51;68088.00;;;8.12;100.00
36354;BME280;22383;51.114;13.666;2023-10-08T06:35:19;68086.50;;;8.13;100.00
36354;BME280;22383;51.114;13.666;2023-10-08T06:37:51;68087.06;;;8.14;100.00
36354;BME280;22383;51.114;13.666;2023-10-08T06:40:22;68101.19;;;8.20;100.00
36354;BME280;22383;51.114;13.666;2023-10-08T06:43:04;68102.72;;;8.26;100.00
36354;BME280;22383;51.114;13.666;2023-10-08T06:45:49;68110.81;;;8.36;100.00
36354;BME280;22383;51.114;13.666;2023-10-08T06:48:21;68108.75;;;8.36;100.00
36354;BME280;22383;51.114;13.666;2023-10-08T06:50:53;68116.47;;;8.41;100.00
36354;BME280;22383;51.114;13.666;2023-10-08T06:53:34;68120.63;;;8.40;100.00
36354;BME280;22383;51.114;13.666;2023-10-08T06:56:02;68117.41;;;8.39;100.00
36354;BME280;22383;51.114;13.666;2023-10-08T06:58:32;68118.00;;;8.40;100.00
36354;BME280;22383;51.114;13.666;2023-10-08T07:01:01;68122.53;;;8.44;100.00
36354;BME280;22383;51.114;13.666;2023-10-08T07:03:36;68120.47;;;8.44;100.00
36354;BME280;22383;51.114;13.666;2023-10-08T07:06:05;68126.50;;;8.47;100.00
36354;BME280;22383;51.114;13.666;2023-10-08T07:08:53;68127.44;;;8.46;100.00
36354;BME280;22383;51.114;13.666;2023-10-08T07:11:27;68126.13;;;8.49;100.00
36354;BME280;22383;51.114;13.666;2023-10-08T07:13:54;68134.78;;;8.52;100.00
36354;BME280;22383;51.114;13.666;2023-10-08T07:16:22;68137.25;;;8.57;100.00
36354;BME280;22383;51.114;13.666;2023-10-08T07:18:50;68139.69;;;8.62;100.00
36354;BME280;22383;51.114;13.666;2023-10-08T07:21:19;68135.19;;;8.58;100.00
36354;BME280;22383;51.114;13.666;2023-10-08T07:23:56;68137.81;;;8.58;100.00
36354;BME280;22383;51.114;13.666;2023-10-08T07:26:26;68140.63;;;8.60;100.00
36354;BME280;22383;51.114;13.666;2023-10-08T07:28:54;68135.75;;;8.58;100.00
36354;BME280;22383;51.114;13.666;2023-10-08T07:31:23;68142.53;;;8.64;100.00
36354;BME280;22383;51.114;13.666;2023-10-08T07:33:53;68149.31;;;8.63;100.00
36354;BME280;22383;51.114;13.666;2023-10-08T07:36:26;68149.50;;;8.66;100.00
36354;BME280;22383;51.114;13.666;2023-10-08T07:38:57;68146.88;;;8.66;100.00
36354;BME280;22383;51.114;13.666;2023-10-08T07:41:26;68148.19;;;8.69;100.00
36354;BME280;22383;51.114;13.666;2023-10-08T07:43:54;68157.25;;;8.78;100.00
36354;BME280;22383;51.114;13.666;2023-10-08T07:46:26;68164.78;;;8.80;100.00
36354;BME280;22383;51.114;13.666;2023-10-08T07:48:56;68162.34;;;8.82;100.00
36354;BME280;22383;51.114;13.666;2023-10-08T07:51:25;68171.03;;;8.85;100.00
36354;BME280;22383;51.114;13.666;2023-10-08T07:53:52;68170.66;;;8.87;100.00
36354;BME280;22383;51.114;13.666;2023-10-08T07:56:24;68165.16;;;8.78;100.00
36354;BME280;22383;51.114;13.666;2023-10-08T07:58:52;68159.72;;;8.75;100.00
36354;BME280;22383;51.114;13.666;2023-10-08T08:01:19;68147.63;;;8.69;100.00
36354;BME280;22383;51.114;13.666;2023-10-08T08:03:48;68138.00;;;8.60;100.00
36354;BME280;22383;51.114;13.666;2023-10-08T08:06:16;68134.22;;;8.52;100.00
36354;BME280;22383;51.114;13.666;2023-10-08T08:08:44;68121.78;;;8.48;100.00
36354;BME280;22383;51.114;13.666;2023-10-08T08:11:11;68125.34;;;8.46;100.00
36354;BME280;22383;51.114;13.666;2023-10-08T08:13:44;68126.28;;;8.45;100.00
36354;BME280;22383;51.114;13.666;2023-10-08T08:16:13;68126.13;;;8.49;100.00
36354;BME280;22383;51.114;13.666;2023-10-08T08:18:50;68133.47;;;8.56;100.00
36354;BME280;22383;51.114;13.666;2023-10-08T08:21:19;68142.53;;;8.64;100.00
36354;BME280;22383;51.114;13.666;2023-10-08T08:23:47;68147.06;;;8.68;100.00
36354;BME280;22383;51.114;13.666;2023-10-08T08:26:23;68150.25;;;8.69;100.00
36354;BME280;22383;51.114;13.666;2023-10-08T08:28:57;68153.66;;;8.72;100.00
36354;BME280;22383;51.114;13.666;2023-10-08T08:31:30;68168.56;;;8.81;100.00
36354;BME280;22383;51.114;13.666;2023-10-08T08:34:03;68165.94;;;8.81;100.00
36354;BME280;22383;51.114;13.666;2023-10-08T08:36:37;68162.16;;;8.80;100.00
36354;BME280;22383;51.114;13.666;2023-10-08T08:39:06;68171.22;;;8.88;100.00
36354;BME280;22383;51.114;13.666;2023-10-08T08:41:38;68165.19;;;8.85;100.00
36354;BME280;22383;51.114;13.666;2023-10-08T08:44:06;68170.44;;;8.85;100.00
36354;BME280;22383;51.114;13.666;2023-10-08T08:46:35;68166.31;;;8.86;100.00
36354;BME280;22383;51.114;13.666;2023-10-08T08:49:04;68176.50;;;8.95;100.00
36354;BME280;22383;51.114;13.666;2023-10-08T08:51:32;68179.69;;;8.96;100.00
36354;BME280;22383;51.114;13.666;2023-10-08T08:53:59;68185.56;;;9.03;100.00
36354;BME280;22383;51.114;13.666;2023-10-08T08:56:28;68202.72;;;9.14;100.00
36354;BME280;22383;51.114;13.666;2023-10-08T08:58:57;68203.50;;;9.17;100.00
36354;BME280;22383;51.114;13.666;2023-10-08T09:01:27;68217.66;;;9.30;100.00
36354;BME280;22383;51.114;13.666;2023-10-08T09:04:00;68224.47;;;9.36;100.00
36354;BME280;22383;51.114;13.666;2023-10-08T09:06:29;68235.59;;;9.44;100.00
36354;BME280;22383;51.114;13.666;2023-10-08T09:09:02;68241.25;;;9.49;100.00
36354;BME280;22383;51.114;13.666;2023-10-08T09:11:50;68254.47;;;9.63;100.00
36354;BME280;22383;51.114;13.666;2023-10-08T09:14:23;68253.53;;;9.65;100.00
36354;BME280;22383;51.114;13.666;2023-10-08T09:16:53;68257.31;;;9.66;100.00
36354;BME280;22383;51.114;13.666;2023-10-08T09:19:24;68258.06;;;9.69;100.00
36354;BME280;22383;51.114;13.666;2023-10-08T09:22:06;68272.59;;;9.80;100.00
36354;BME280;22383;51.114;13.666;2023-10-08T09:24:35;68264.84;;;9.75;100.00
36354;BME280;22383;51.114;13.666;2023-10-08T09:27:07;68272.03;;;9.79;100.00
36354;BME280;22383;51.114;13.666;2023-10-08T09:29:35;68267.50;;;9.75;100.00
36354;BME280;22383;51.114;13.666;2023-10-08T09:32:10;68266.94;;;9.75;100.00
36354;BME280;22383;51.114;13.666;2023-10-08T09:34:37;68264.09;;;9.72;100.00
36354;BME280;22383;51.114;13.666;2023-10-08T09:37:05;68269.75;;;9.77;100.00
36354;BME280;22383;51.114;13.666;2023-10-08T09:39:32;68265.41;;;9.76;100.00
36354;BME280;22383;51.114;13.666;2023-10-08T09:42:03;68271.47;;;9.79;100.00
36354;BME280;22383;51.114;13.666;2023-10-08T09:44:34;68265.81;;;9.74;100.00
36354;BME280;22383;51.114;13.666;2023-10-08T09:47:06;68262.97;;;9.71;100.00
36354;BME280;22383;51.114;13.666;2023-10-08T09:49:53;68270.31;;;9.78;100.00
36354;BME280;22383;51.114;13.666;2023-10-08T09:52:33;68277.91;;;9.87;100.00
36354;BME280;22383;51.114;13.666;2023-10-08T09:55:08;68293.56;;;9.99;100.00
36354;BME280;22383;51.114;13.666;2023-10-08T09:57:37;68309.81;;;10.18;100.00
36354;BME280;22383;51.114;13.666;2023-10-08T10:00:06;68320.56;;;10.21;100.00
36354;BME280;22383;51.114;13.666;2023-10-08T10:02:42;68313.97;;;10.17;100.00
36354;BME280;22383;51.114;13.666;2023-10-08T10:05:11;68332.13;;;10.34;100.00
36354;BME280;22383;51.114;13.666;2023-10-08T10:07:40;68372.94;;;10.71;100.00
36354;BME280;22383;51.114;13.666;2023-10-08T10:10:30;68436.06;;;11.30;100.00
36354;BME280;22383;51.114;13.666;2023-10-08T10:13:06;68488.09;;;11.75;100.00
36354;BME280;22383;51.114;13.666;2023-10-08T10:15:36;68504.75;;;11.93;100.00
36354;BME280;22383;51.114;13.666;2023-10-08T10:18:30;68480.31;;;11.70;100.00
36354;BME280;22383;51.114;13.666;2023-10-08T10:21:26;68460.44;;;11.74;100.00
36354;BME280;22383;51.114;13.666;2023-10-08T10:23:55;68487.16;;;11.77;100.00
36354;BME280;22383;51.114;13.666;2023-10-08T10:31:37;68455.56;;;11.50;100.00
36354;BME280;22383;51.114;13.666;2023-10-08T10:34:06;68451.22;;;11.42;100.00
36354;BME280;22383;51.114;13.666;2023-10-08T10:36:36;68452.53;;;11.45;100.00
36354;BME280;22383;51.114;13.666;2023-10-08T10:39:04;68448.56;;;11.42;100.00
36354;BME280;22383;51.114;13.666;2023-10-08T10:41:47;68441.38;;;11.38;100.00
36354;BME280;22383;51.114;13.666;2023-10-08T10:44:15;68445.16;;;11.39;100.00
36354;BME280;22383;51.114;13.666;2023-10-08T10:46:44;68433.81;;;11.28;100.00
36354;BME280;22383;51.114;13.666;2023-10-08T10:49:18;68435.91;;;11.28;100.00
36354;BME280;22383;51.114;13.666;2023-10-08T10:51:49;68444.59;;;11.38;100.00
36354;BME280;22383;51.114;13.666;2023-10-08T10:54:20;68437.78;;;11.32;100.00
36354;BME280;22383;51.114;13.666;2023-10-08T10:56:51;68444.78;;;11.33;100.00
36354;BME280;22383;51.114;13.666;2023-10-08T10:59:32;68447.81;;;11.39;100.00
36354;BME280;22383;51.114;13.666;2023-10-08T11:02:09;68441.94;;;11.38;100.00
36354;BME280;22383;51.114;13.666;2023-10-08T11:04:48;68461.81;;;11.49;100.00
36354;BME280;22383;51.114;13.666;2023-10-08T11:07:21;68458.78;;;11.51;100.00
36354;BME280;22383;51.114;13.666;2023-10-08T11:09:51;68460.47;;;11.52;100.00
36354;BME280;22383;51.114;13.666;2023-10-08T11:12:19;68457.44;;;11.47;100.00
36354;BME280;22383;51.114;13.666;2023-10-08T11:14:50;68432.09;;;11.27;100.00
36354;BME280;22383;51.114;13.666;2023-10-08T11:18:42;68416.22;;;11.12;100.00
36354;BME280;22383;51.114;13.666;2023-10-08T11:21:10;68404.31;;;11.02;100.00
36354;BME280;22383;51.114;13.666;2023-10-08T11:23:46;68397.31;;;10.93;100.00
36354;BME280;22383;51.114;13.666;2023-10-08T11:26:20;68396.56;;;10.97;100.00
36354;BME280;22383;51.114;13.666;2023-10-08T11:28:48;68433.03;;;11.25;100.00
36354;BME280;22383;51.114;13.666;2023-10-08T11:31:17;68427.38;;;11.27;100.00
36354;BME280;22383;51.114;13.666;2023-10-08T11:33:48;68443.44;;;11.37;100.00
36354;BME280;22383;51.114;13.666;2023-10-08T11:36:22;68452.91;;;11.43;100.00
36354;BME280;22383;51.114;13.666;2023-10-08T11:39:08;68452.53;;;11.45;100.00
36354;BME280;22383;51.114;13.666;2023-10-08T11:41:36;68447.03;;;11.43;100.00
36354;BME280;22383;51.114;13.666;2023-10-08T11:44:17;68464.25;;;11.46;100.00
36354;BME280;22383;51.114;13.666;2023-10-08T11:46:49;68492.25;;;11.81;100.00
36354;BME280;22383;51.114;13.666;2023-10-08T11:49:19;68527.44;;;12.13;100.00
36354;BME280;22383;51.114;13.666;2023-10-08T11:51:52;68556.78;;;12.37;100.00
36354;BME280;22383;51.114;13.666;2023-10-08T11:54:22;68541.25;;;12.28;100.00
36354;BME280;22383;51.114;13.666;2023-10-08T11:56:50;68521.59;;;12.05;100.00
36354;BME280;22383;51.114;13.666;2023-10-08T11:59:17;68526.72;;;12.10;100.00
36354;BME280;22383;51.114;13.666;2023-10-08T12:01:45;68518.00;;;12.00;100.00
36354;BME280;22383;51.114;13.666;2023-10-08T12:04:13;68506.63;;;11.97;100.00
36354;BME280;22383;51.114;13.666;2023-10-08T12:06:43;68516.28;;;11.98;100.00
36354;BME280;22383;51.114;13.666;2023-10-08T12:09:14;68509.84;;;11.97;100.00
36354;BME280;22383;51.114;13.666;2023-10-08T12:11:42;68504.75;;;11.93;100.00
36354;BME280;22383;51.114;13.666;2023-10-08T12:14:10;68505.31;;;11.93;100.00
36354;BME280;22383;51.114;13.666;2023-10-08T12:16:38;68491.13;;;11.80;100.00
36354;BME280;22383;51.114;13.666;2023-10-08T12:19:07;68486.38;;;11.73;100.00
36354;BME280;22383;51.114;13.666;2023-10-08T12:21:45;68488.66;;;11.76;100.00
36354;BME280;22383;51.114;13.666;2023-10-08T12:24:14;68483.53;;;11.71;100.00
36354;BME280;22383;51.114;13.666;2023-10-08T12:26:42;68457.03;;;11.71;100.00
36354;BME280;22383;51.114;13.666;2023-10-08T12:29:14;68475.41;;;11.68;100.00
36354;BME280;22383;51.114;13.666;2023-10-08T12:31:44;68480.91;;;11.64;100.00
36354;BME280;22383;51.114;13.666;2023-10-08T12:34:14;68467.28;;;11.59;100.00
36354;BME280;22383;51.114;13.666;2023-10-08T12:36:42;68469.34;;;11.58;100.00
36354;BME280;22383;51.114;13.666;2023-10-08T12:39:10;68468.59;;;11.55;100.00
36354;BME280;22383;51.114;13.666;2023-10-08T12:41:43;68460.84;;;11.50;100.00
36354;BME280;22383;51.114;13.666;2023-10-08T12:44:13;68462.56;;;11.52;100.00
36354;BME280;22383;51.114;13.666;2023-10-08T12:46:43;68458.22;;;11.50;100.00
36354;BME280;22383;51.114;13.666;2023-10-08T12:49:11;68463.69;;;11.53;100.00
36354;BME280;22383;51.114;13.666;2023-10-08T12:51:38;68474.84;;;11.61;100.00
36354;BME280;22383;51.114;13.666;2023-10-08T12:54:09;68466.72;;;11.58;100.00
36354;BME280;22383;51.114;13.666;2023-10-08T12:56:48;68469.34;;;11.58;100.00
36354;BME280;22383;51.114;13.666;2023-10-08T12:59:16;68471.81;;;11.63;100.00
36354;BME280;22383;51.114;13.666;2023-10-08T13:01:51;68478.81;;;11.64;100.00
36354;BME280;22383;51.114;13.666;2023-10-08T13:04:23;68479.19;;;11.69;100.00
36354;BME280;22383;51.114;13.666;2023-10-08T13:06:57;68481.28;;;11.69;100.00
36354;BME280;22383;51.114;13.666;2023-10-08T13:09:29;68521.41;;;12.03;100.00
36354;BME280;22383;51.114;13.666;2023-10-08T13:11:59;68560.75;;;12.41;100.00
36354;BME280;22383;51.114;13.666;2023-10-08T13:14:27;68588.00;;;12.65;100.00
36354;BME280;22383;51.114;13.666;2023-10-08T13:16:54;68611.50;;;12.89;100.00
36354;BME280;22383;51.114;13.666;2023-10-08T13:19:21;68615.84;;;12.91;100.00
36354;BME280;22383;51.114;13.666;2023-10-08T13:21:53;68612.03;;;12.90;100.00